sensor_id;sensor_type;location;lat;lon;timestamp;pressure;altitude;pressure_sealevel;temperature;humidity
43770;BME280;6597;52.218;9.882;2023-02-23T00:00:17;100369.69;;;5.02;100.00
43770;BME280;6597;52.218;9.882;2023-02-23T00:02:48;100374.03;;;5.02;100.00
43770;BME280;6597;52.218;9.882;2023-02-23T00:05:16;100367.13;;;5.00;100.00
43770;BME280;6597;52.218;9.882;2023-02-23T00:07:43;100370.53;;;5.04;100.00
43770;BME280;6597;52.218;9.882;2023-02-23T00:10:12;100371.34;;;5.06;100.00
43770;BME280;6597;52.218;9.882;2023-02-23T00:12:39;100364.38;;;5.08;100.00
43770;BME280;6597;52.218;9.882;2023-02-23T00:15:07;100364.19;;;5.17;100.00
43770;BME280;6597;52.218;9.882;2023-02-23T00:17:33;100358.81;;;5.28;100.00
43770;BME280;6597;52.218;9.882;2023-02-23T00:20:04;100365.50;;;5.40;100.00
43770;BME280;6597;52.218;9.882;2023-02-23T00:22:37;100364.41;;;5.50;100.00
43770;BME280;6597;52.218;9.882;2023-02-23T00:25:05;100356.38;;;5.62;100.00
43770;BME280;6597;52.218;9.882;2023-02-23T00:27:33;100353.44;;;5.76;100.00
43770;BME280;6597;52.218;9.882;2023-02-23T00:30:01;100355.59;;;5.99;100.00
43770;BME280;6597;52.218;9.882;2023-02-23T00:32:28;100353.44;;;6.16;100.00
43770;BME280;6597;52.218;9.882;2023-02-23T00:34:54;100359.50;;;6.53;100.00
43770;BME280;6597;52.218;9.882;2023-02-23T00:37:23;100358.81;;;6.45;100.00
43770;BME280;6597;52.218;9.882;2023-02-23T00:39:53;100364.84;;;6.81;100.00
43770;BME280;6597;52.218;9.882;2023-02-23T00:42:21;100352.34;;;6.62;100.00
43770;BME280;6597;52.218;9.882;2023-02-23T00:44:47;100356.97;;;6.49;100.00
43770;BME280;6597;52.218;9.882;2023-02-23T00:47:14;100354.44;;;6.46;100.00
43770;BME280;6597;52.218;9.882;2023-02-23T00:49:41;100360.13;;;6.63;100.00
43770;BME280;6597;52.218;9.882;2023-02-23T00:52:09;100361.25;;;6.53;100.00
43770;BME280;6597;52.218;9.882;2023-02-23T00:54:40;100356.66;;;6.63;100.00
43770;BME280;6597;52.218;9.882;2023-02-23T00:57:07;100364.19;;;6.73;100.00
43770;BME280;6597;52.218;9.882;2023-02-23T00:59:34;100371.69;;;6.87;100.00
43770;BME280;6597;52.218;9.882;2023-02-23T01:02:01;100367.06;;;6.97;100.00
43770;BME280;6597;52.218;9.882;2023-02-23T01:04:27;100365.88;;;7.08;100.00
43770;BME280;6597;52.218;9.882;2023-02-23T01:06:54;100373.53;;;7.14;100.00
43770;BME280;6597;52.218;9.882;2023-02-23T01:09:21;100365.53;;;7.22;100.00
43770;BME280;6597;52.218;9.882;2023-02-23T01:11:54;100368.00;;;7.27;100.00
43770;BME280;6597;52.218;9.882;2023-02-23T01:14:22;100376.47;;;7.35;100.00
43770;BME280;6597;52.218;9.882;2023-02-23T01:16:49;100378.13;;;7.37;100.00
43770;BME280;6597;52.218;9.882;2023-02-23T01:19:16;100374.50;;;7.43;100.00
43770;BME280;6597;52.218;9.882;2023-02-23T01:21:43;100372.63;;;7.48;100.00
43770;BME280;6597;52.218;9.882;2023-02-23T01:24:10;100370.78;;;7.52;100.00
43770;BME280;6597;52.218;9.882;2023-02-23T01:26:39;100374.22;;;7.54;100.00
43770;BME280;6597;52.218;9.882;2023-02-23T01:29:09;100375.97;;;7.53;100.00
43770;BME280;6597;52.218;9.882;2023-02-23T01:31:37;100368.38;;;7.44;100.00
43770;BME280;6597;52.218;9.882;2023-02-23T01:34:06;100382.34;;;7.43;100.00
43770;BME280;6597;52.218;9.882;2023-02-23T01:36:33;100373.78;;;7.38;100.00
43770;BME280;6597;52.218;9.882;2023-02-23T01:39:00;100373.06;;;7.33;100.00
43770;BME280;6597;52.218;9.882;2023-02-23T01:41:30;100380.94;;;7.31;100.00
43770;BME280;6597;52.218;9.882;2023-02-23T01:43:59;100380.16;;;7.28;100.00
43770;BME280;6597;52.218;9.882;2023-02-23T01:46:30;100378.44;;;7.27;100.00
43770;BME280;6597;52.218;9.882;2023-02-23T01:48:56;100378.44;;;7.27;100.00
43770;BME280;6597;52.218;9.882;2023-02-23T01:51:25;100377.50;;;7.29;100.00
43770;BME280;6597;52.218;9.882;2023-02-23T01:53:57;100382.69;;;7.31;100.00
43770;BME280;6597;52.218;9.882;2023-02-23T01:56:28;100374.75;;;7.34;100.00
43770;BME280;6597;52.218;9.882;2023-02-23T01:59:02;100373.69;;;7.41;100.00
43770;BME280;6597;52.218;9.882;2023-02-23T02:01:30;100374.44;;;7.44;100.00
43770;BME280;6597;52.218;9.882;2023-02-23T02:03:59;100377.88;;;7.48;100.00
43770;BME280;6597;52.218;9.882;2023-02-23T02:06:27;100371.66;;;7.52;100.00
43770;BME280;6597;52.218;9.882;2023-02-23T02:08:57;100379.53;;;7.51;100.00
43770;BME280;6597;52.218;9.882;2023-02-23T02:11:25;100379.56;;;7.49;100.00
43770;BME280;6597;52.218;9.882;2023-02-23T02:13:58;100378.78;;;7.45;100.00
43770;BME280;6597;52.218;9.882;2023-02-23T02:16:50;100374.44;;;7.44;100.00
43770;BME280;6597;52.218;9.882;2023-02-23T02:22:49;100382.59;;;7.34;100.00
43770;BME280;6597;52.218;9.882;2023-02-23T02:25:45;100385.16;;;7.35;100.00
43770;BME280;6597;52.218;9.882;2023-02-23T02:28:29;100391.31;;;7.33;100.00
43770;BME280;6597;52.218;9.882;2023-02-23T02:34:22;100375.03;;;7.25;100.00
43770;BME280;6597;52.218;9.882;2023-02-23T02:37:13;100390.81;;;7.20;100.00
43770;BME280;6597;52.218;9.882;2023-02-23T02:39:47;100383.13;;;7.14;100.00
43770;BME280;6597;52.218;9.882;2023-02-23T02:42:23;100391.97;;;7.08;100.00
43770;BME280;6597;52.218;9.882;2023-02-23T02:44:57;100399.13;;;7.02;100.00
43770;BME280;6597;52.218;9.882;2023-02-23T02:47:30;100391.47;;;6.96;100.00
43770;BME280;6597;52.218;9.882;2023-02-23T02:50:03;100382.00;;;6.92;100.00
43770;BME280;6597;52.218;9.882;2023-02-23T02:52:36;100377.03;;;6.81;100.00
43770;BME280;6597;52.218;9.882;2023-02-23T02:55:12;100386.59;;;6.82;100.00
43770;BME280;6597;52.218;9.882;2023-02-23T02:57:42;100384.91;;;6.79;100.00
43770;BME280;6597;52.218;9.882;2023-02-23T03:00:16;100385.81;;;6.78;100.00
43770;BME280;6597;52.218;9.882;2023-02-23T03:03:01;100381.41;;;6.80;100.00
43770;BME280;6597;52.218;9.882;2023-02-23T03:05:47;100379.59;;;6.82;100.00
43770;BME280;6597;52.218;9.882;2023-02-23T03:08:36;100375.28;;;6.81;100.00
43770;BME280;6597;52.218;9.882;2023-02-23T03:11:27;100367.50;;;6.80;100.00
43770;BME280;6597;52.218;9.882;2023-02-23T03:14:21;100373.53;;;6.82;100.00
43770;BME280;6597;52.218;9.882;2023-02-23T03:17:15;100366.59;;;6.81;100.00
43770;BME280;6597;52.218;9.882;2023-02-23T03:20:14;100375.28;;;6.83;100.00
43770;BME280;6597;52.218;9.882;2023-02-23T03:23:08;100375.31;;;6.80;100.00
43770;BME280;6597;52.218;9.882;2023-02-23T03:26:03;100378.00;;;6.77;100.00
43770;BME280;6597;52.218;9.882;2023-02-23T03:28:58;100384.22;;;6.73;100.00
43770;BME280;6597;52.218;9.882;2023-02-23T03:31:47;100378.13;;;6.72;100.00
43770;BME280;6597;52.218;9.882;2023-02-23T03:34:36;100385.84;;;6.77;100.00
43770;BME280;6597;52.218;9.882;2023-02-23T03:37:27;100392.72;;;6.79;100.00
43770;BME280;6597;52.218;9.882;2023-02-23T03:40:18;100390.28;;;6.73;100.00
43770;BME280;6597;52.218;9.882;2023-02-23T03:43:08;100391.31;;;6.68;100.00
43770;BME280;6597;52.218;9.882;2023-02-23T03:45:56;100378.41;;;6.62;100.00
43770;BME280;6597;52.218;9.882;2023-02-23T03:48:42;100381.16;;;6.57;100.00
43770;BME280;6597;52.218;9.882;2023-02-23T03:51:30;100382.09;;;6.54;100.00
43770;BME280;6597;52.218;9.882;2023-02-23T03:54:19;100382.00;;;6.58;100.00
43770;BME280;6597;52.218;9.882;2023-02-23T03:57:08;100378.34;;;6.65;100.00
43770;BME280;6597;52.218;9.882;2023-02-23T03:59:59;100387.78;;;6.69;100.00
43770;BME280;6597;52.218;9.882;2023-02-23T04:02:48;100386.94;;;6.68;100.00
43770;BME280;6597;52.218;9.882;2023-02-23T04:05:36;100389.50;;;6.70;100.00
43770;BME280;6597;52.218;9.882;2023-02-23T04:08:24;100383.56;;;6.65;100.00
43770;BME280;6597;52.218;9.882;2023-02-23T04:11:13;100392.31;;;6.62;100.00
43770;BME280;6597;52.218;9.882;2023-02-23T04:14:04;100384.53;;;6.61;100.00
43770;BME280;6597;52.218;9.882;2023-02-23T04:16:33;100385.59;;;6.53;100.00
43770;BME280;6597;52.218;9.882;2023-02-23T04:18:59;100385.66;;;6.50;100.00
43770;BME280;6597;52.218;9.882;2023-02-23T04:21:26;100388.31;;;6.47;100.00
43770;BME280;6597;52.218;9.882;2023-02-23T04:23:52;100388.44;;;6.43;100.00
43770;BME280;6597;52.218;9.882;2023-02-23T04:26:19;100379.00;;;6.37;100.00
43770;BME280;6597;52.218;9.882;2023-02-23T04:28:46;100383.44;;;6.34;100.00
43770;BME280;6597;52.218;9.882;2023-02-23T04:31:12;100381.84;;;6.28;100.00
43770;BME280;6597;52.218;9.882;2023-02-23T04:33:40;100382.72;;;6.27;100.00
43770;BME280;6597;52.218;9.882;2023-02-23T04:36:06;100385.50;;;6.21;100.00
43770;BME280;6597;52.218;9.882;2023-02-23T04:38:33;100377.75;;;6.18;100.00
43770;BME280;6597;52.218;9.882;2023-02-23T04:41:00;100377.75;;;6.18;100.00
43770;BME280;6597;52.218;9.882;2023-02-23T04:43:26;100389.88;;;6.17;100.00
43770;BME280;6597;52.218;9.882;2023-02-23T04:45:53;100391.81;;;6.09;100.00
43770;BME280;6597;52.218;9.882;2023-02-23T04:48:19;100386.56;;;6.11;100.00
43770;BME280;6597;52.218;9.882;2023-02-23T04:50:52;100388.28;;;6.12;100.00
43770;BME280;6597;52.218;9.882;2023-02-23T04:53:18;100379.63;;;6.10;100.00
43770;BME280;6597;52.218;9.882;2023-02-23T04:55:45;100384.94;;;6.07;100.00
43770;BME280;6597;52.218;9.882;2023-02-23T04:58:12;100386.72;;;6.05;100.00
43770;BME280;6597;52.218;9.882;2023-02-23T05:00:39;100386.84;;;5.99;100.00
43770;BME280;6597;52.218;9.882;2023-02-23T05:03:06;100387.81;;;5.95;100.00
43770;BME280;6597;52.218;9.882;2023-02-23T05:05:32;100387.84;;;5.93;100.00
43770;BME280;6597;52.218;9.882;2023-02-23T05:08:00;100394.00;;;5.90;100.00
43770;BME280;6597;52.218;9.882;2023-02-23T05:10:27;100401.81;;;5.89;100.00
43770;BME280;6597;52.218;9.882;2023-02-23T05:12:54;100390.53;;;5.88;100.00
43770;BME280;6597;52.218;9.882;2023-02-23T05:15:20;100394.91;;;5.86;100.00
43770;BME280;6597;52.218;9.882;2023-02-23T05:17:47;100405.34;;;5.85;100.00
43770;BME280;6597;52.218;9.882;2023-02-23T05:20:14;100404.47;;;5.86;100.00
43770;BME280;6597;52.218;9.882;2023-02-23T05:22:40;100407.91;;;5.88;100.00
43770;BME280;6597;52.218;9.882;2023-02-23T05:25:09;100407.09;;;5.86;100.00
43770;BME280;6597;52.218;9.882;2023-02-23T05:27:36;100400.13;;;5.85;100.00
43770;BME280;6597;52.218;9.882;2023-02-23T05:30:03;100406.16;;;5.90;100.00
43770;BME280;6597;52.218;9.882;2023-02-23T05:32:29;100405.25;;;5.91;100.00
43770;BME280;6597;52.218;9.882;2023-02-23T05:34:56;100406.94;;;5.93;100.00
43770;BME280;6597;52.218;9.882;2023-02-23T05:37:22;100399.13;;;5.93;100.00
43770;BME280;6597;52.218;9.882;2023-02-23T05:39:49;100402.56;;;5.96;100.00
43770;BME280;6597;52.218;9.882;2023-02-23T05:42:17;100403.38;;;5.98;100.00
43770;BME280;6597;52.218;9.882;2023-02-23T05:44:44;100393.84;;;5.97;100.00
43770;BME280;6597;52.218;9.882;2023-02-23T05:47:10;100401.56;;;6.01;100.00
43770;BME280;6597;52.218;9.882;2023-02-23T05:49:37;100398.84;;;6.06;100.00
43770;BME280;6597;52.218;9.882;2023-02-23T05:52:03;100401.38;;;6.09;100.00
43770;BME280;6597;52.218;9.882;2023-02-23T05:54:30;100395.28;;;6.10;100.00
43770;BME280;6597;52.218;9.882;2023-02-23T05:56:56;100403.91;;;6.12;100.00
43770;BME280;6597;52.218;9.882;2023-02-23T05:59:24;100409.13;;;6.12;100.00
43770;BME280;6597;52.218;9.882;2023-02-23T06:01:51;100409.03;;;6.16;100.00
43770;BME280;6597;52.218;9.882;2023-02-23T06:04:17;100417.66;;;6.20;100.00
43770;BME280;6597;52.218;9.882;2023-02-23T06:06:46;100412.44;;;6.20;100.00
43770;BME280;6597;52.218;9.882;2023-02-23T06:09:13;100408.88;;;6.24;100.00
43770;BME280;6597;52.218;9.882;2023-02-23T06:11:39;100407.09;;;6.26;100.00
43770;BME280;6597;52.218;9.882;2023-02-23T06:14:06;100407.78;;;6.33;100.00
43770;BME280;6597;52.218;9.882;2023-02-23T06:16:34;100406.03;;;6.33;100.00
43770;BME280;6597;52.218;9.882;2023-02-23T06:19:00;100403.41;;;6.35;100.00
43770;BME280;6597;52.218;9.882;2023-02-23T06:21:27;100403.44;;;6.33;100.00
43770;BME280;6597;52.218;9.882;2023-02-23T06:23:53;100401.75;;;6.31;100.00
43770;BME280;6597;52.218;9.882;2023-02-23T06:26:20;100406.13;;;6.30;100.00
43770;BME280;6597;52.218;9.882;2023-02-23T06:28:46;100408.66;;;6.33;100.00
43770;BME280;6597;52.218;9.882;2023-02-23T06:31:13;100406.94;;;6.32;100.00
43770;BME280;6597;52.218;9.882;2023-02-23T06:33:41;100408.63;;;6.35;100.00
43770;BME280;6597;52.218;9.882;2023-02-23T06:36:08;100411.16;;;6.38;100.00
43770;BME280;6597;52.218;9.882;2023-02-23T06:38:35;100410.22;;;6.40;100.00
43770;BME280;6597;52.218;9.882;2023-02-23T06:41:06;100416.22;;;6.44;100.00
43770;BME280;6597;52.218;9.882;2023-02-23T06:43:32;100417.03;;;6.46;100.00
43770;BME280;6597;52.218;9.882;2023-02-23T06:45:59;100415.19;;;6.49;100.00
43770;BME280;6597;52.218;9.882;2023-02-23T06:48:26;100410.84;;;6.50;100.00
43770;BME280;6597;52.218;9.882;2023-02-23T06:50:53;100419.56;;;6.50;100.00
43770;BME280;6597;52.218;9.882;2023-02-23T06:53:20;100425.63;;;6.51;100.00
43770;BME280;6597;52.218;9.882;2023-02-23T06:55:48;100430.81;;;6.52;100.00
43770;BME280;6597;52.218;9.882;2023-02-23T06:58:14;100435.06;;;6.57;100.00
43770;BME280;6597;52.218;9.882;2023-02-23T07:00:42;100431.50;;;6.59;100.00
43770;BME280;6597;52.218;9.882;2023-02-23T07:03:08;100434.00;;;6.64;100.00
43770;BME280;6597;52.218;9.882;2023-02-23T07:05:35;100439.88;;;6.72;100.00
43770;BME280;6597;52.218;9.882;2023-02-23T07:08:04;100440.66;;;6.75;100.00
43770;BME280;6597;52.218;9.882;2023-02-23T07:10:32;100439.72;;;6.78;100.00
43770;BME280;6597;52.218;9.882;2023-02-23T07:12:59;100443.97;;;6.82;100.00
43770;BME280;6597;52.218;9.882;2023-02-23T07:15:25;100450.81;;;6.88;100.00
43770;BME280;6597;52.218;9.882;2023-02-23T07:17:52;100447.28;;;6.90;100.00
43770;BME280;6597;52.218;9.882;2023-02-23T07:20:19;100450.63;;;6.95;100.00
43770;BME280;6597;52.218;9.882;2023-02-23T07:22:45;100455.75;;;6.98;100.00
43770;BME280;6597;52.218;9.882;2023-02-23T07:25:13;100450.50;;;7.00;100.00
43770;BME280;6597;52.218;9.882;2023-02-23T07:27:40;100457.31;;;7.05;100.00
43770;BME280;6597;52.218;9.882;2023-02-23T07:30:09;100456.25;;;7.12;100.00
43770;BME280;6597;52.218;9.882;2023-02-23T07:32:35;100456.16;;;7.17;100.00
43770;BME280;6597;52.218;9.882;2023-02-23T07:35:02;100457.75;;;7.23;100.00
43770;BME280;6597;52.218;9.882;2023-02-23T07:37:29;100445.63;;;7.20;100.00
43770;BME280;6597;52.218;9.882;2023-02-23T07:39:55;100463.53;;;7.34;100.00
43770;BME280;6597;52.218;9.882;2023-02-23T07:42:23;100459.88;;;7.41;100.00
43770;BME280;6597;52.218;9.882;2023-02-23T07:44:51;100463.25;;;7.44;100.00
43770;BME280;6597;52.218;9.882;2023-02-23T07:47:18;100465.72;;;7.51;100.00
43770;BME280;6597;52.218;9.882;2023-02-23T07:49:44;100470.81;;;7.55;100.00
43770;BME280;6597;52.218;9.882;2023-02-23T07:52:11;100462.81;;;7.61;100.00
43770;BME280;6597;52.218;9.882;2023-02-23T07:54:37;100475.66;;;7.69;100.00
43770;BME280;6597;52.218;9.882;2023-02-23T07:57:04;100475.47;;;7.75;100.00
43770;BME280;6597;52.218;9.882;2023-02-23T07:59:32;100470.06;;;7.83;100.00
43770;BME280;6597;52.218;9.882;2023-02-23T08:01:58;100468.06;;;7.91;100.00
43770;BME280;6597;52.218;9.882;2023-02-23T08:04:25;100479.97;;;8.01;100.00
43770;BME280;6597;52.218;9.882;2023-02-23T08:06:51;100481.44;;;8.09;100.00
43770;BME280;6597;52.218;9.882;2023-02-23T08:09:19;100483.91;;;8.16;100.00
43770;BME280;6597;52.218;9.882;2023-02-23T08:11:46;100483.72;;;8.22;100.00
43770;BME280;6597;52.218;9.882;2023-02-23T08:14:12;100487.00;;;8.28;100.00
43770;BME280;6597;52.218;9.882;2023-02-23T08:16:40;100482.47;;;8.35;100.00
43770;BME280;6597;52.218;9.882;2023-02-23T08:19:07;100486.75;;;8.37;100.00
43770;BME280;6597;52.218;9.882;2023-02-23T08:21:34;100489.28;;;8.40;100.00
43770;BME280;6597;52.218;9.882;2023-02-23T08:24:01;100489.09;;;8.47;100.00
43770;BME280;6597;52.218;9.882;2023-02-23T08:26:27;100490.72;;;8.51;100.00
43770;BME280;6597;52.218;9.882;2023-02-23T08:28:54;100495.75;;;8.57;100.00
43770;BME280;6597;52.218;9.882;2023-02-23T08:31:21;100484.28;;;8.61;100.00
43770;BME280;6597;52.218;9.882;2023-02-23T08:33:49;100498.13;;;8.64;100.00
43770;BME280;6597;52.218;9.882;2023-02-23T08:36:16;100492.75;;;8.69;100.00
43770;BME280;6597;52.218;9.882;2023-02-23T08:38:42;100497.28;;;8.64;100.00
43770;BME280;6597;52.218;9.882;2023-02-23T08:41:09;100501.72;;;8.62;100.00
43770;BME280;6597;52.218;9.882;2023-02-23T08:43:35;100503.31;;;8.66;100.00
43770;BME280;6597;52.218;9.882;2023-02-23T08:46:03;100492.94;;;8.63;100.00
43770;BME280;6597;52.218;9.882;2023-02-23T08:48:30;100498.13;;;8.64;100.00
43770;BME280;6597;52.218;9.882;2023-02-23T08:50:58;100501.50;;;8.68;100.00
43770;BME280;6597;52.218;9.882;2023-02-23T08:53:25;100505.94;;;8.66;100.00
43770;BME280;6597;52.218;9.882;2023-02-23T08:55:55;100507.69;;;8.65;100.00
43770;BME280;6597;52.218;9.882;2023-02-23T08:58:21;100505.88;;;8.67;100.00
43770;BME280;6597;52.218;9.882;2023-02-23T09:00:48;100514.59;;;8.68;100.00
43770;BME280;6597;52.218;9.882;2023-02-23T09:03:15;100509.31;;;8.69;100.00
43770;BME280;6597;52.218;9.882;2023-02-23T09:05:42;100511.06;;;8.69;100.00
43770;BME280;6597;52.218;9.882;2023-02-23T09:08:10;100502.31;;;8.70;100.00
43770;BME280;6597;52.218;9.882;2023-02-23T09:10:37;100517.16;;;8.69;100.00
43770;BME280;6597;52.218;9.882;2023-02-23T09:13:04;100514.50;;;8.71;100.00
43770;BME280;6597;52.218;9.882;2023-02-23T09:15:31;100524.16;;;8.69;100.00
43770;BME280;6597;52.218;9.882;2023-02-23T09:17:59;100523.41;;;8.65;100.00
43770;BME280;6597;52.218;9.882;2023-02-23T09:20:26;100529.53;;;8.64;100.00
43770;BME280;6597;52.218;9.882;2023-02-23T09:22:53;100526.00;;;8.65;100.00
43770;BME280;6597;52.218;9.882;2023-02-23T09:25:22;100530.44;;;8.63;100.00
43770;BME280;6597;52.218;9.882;2023-02-23T09:27:49;100523.69;;;8.56;100.00
43770;BME280;6597;52.218;9.882;2023-02-23T09:30:17;100538.56;;;8.54;100.00
43770;BME280;6597;52.218;9.882;2023-02-23T09:32:45;100535.34;;;8.46;100.00
43770;BME280;6597;52.218;9.882;2023-02-23T09:35:12;100538.06;;;8.41;100.00
43770;BME280;6597;52.218;9.882;2023-02-23T09:37:42;100547.91;;;8.32;100.00
43770;BME280;6597;52.218;9.882;2023-02-23T09:40:14;100556.13;;;8.20;100.00
43770;BME280;6597;52.218;9.882;2023-02-23T09:42:45;100553.66;;;8.15;100.00
43770;BME280;6597;52.218;9.882;2023-02-23T09:45:23;100543.34;;;8.09;100.00
43770;BME280;6597;52.218;9.882;2023-02-23T09:48:04;100546.84;;;8.08;100.00
43770;BME280;6597;52.218;9.882;2023-02-23T09:50:33;100546.09;;;8.04;100.00
43770;BME280;6597;52.218;9.882;2023-02-23T09:53:04;100553.06;;;8.04;100.00
43770;BME280;6597;52.218;9.882;2023-02-23T09:55:32;100546.91;;;8.06;100.00
43770;BME280;6597;52.218;9.882;2023-02-23T09:58:05;100551.25;;;8.06;100.00
43770;BME280;6597;52.218;9.882;2023-02-23T10:00:36;100545.13;;;8.07;100.00
43770;BME280;6597;52.218;9.882;2023-02-23T10:03:11;100547.59;;;8.13;100.00
43770;BME280;6597;52.218;9.882;2023-02-23T10:05:45;100547.50;;;8.16;100.00
43770;BME280;6597;52.218;9.882;2023-02-23T10:08:21;100547.47;;;8.18;100.00
43770;BME280;6597;52.218;9.882;2023-02-23T10:10:56;100551.88;;;8.16;100.00
43770;BME280;6597;52.218;9.882;2023-02-23T10:13:31;100557.06;;;8.17;100.00
43770;BME280;6597;52.218;9.882;2023-02-23T10:16:10;100547.59;;;8.13;100.00
43770;BME280;6597;52.218;9.882;2023-02-23T10:18:46;100549.31;;;8.14;100.00
43770;BME280;6597;52.218;9.882;2023-02-23T10:21:20;100560.53;;;8.18;100.00
43770;BME280;6597;52.218;9.882;2023-02-23T10:23:52;100561.44;;;8.17;100.00
43770;BME280;6597;52.218;9.882;2023-02-23T10:26:25;100552.75;;;8.16;100.00
43770;BME280;6597;52.218;9.882;2023-02-23T10:28:56;100554.41;;;8.19;100.00
43770;BME280;6597;52.218;9.882;2023-02-23T10:31:27;100557.03;;;8.19;100.00
43770;BME280;6597;52.218;9.882;2023-02-23T10:33:57;100563.19;;;8.16;100.00
43770;BME280;6597;52.218;9.882;2023-02-23T10:36:34;100560.91;;;8.04;100.00
43770;BME280;6597;52.218;9.882;2023-02-23T10:39:04;100567.00;;;8.04;100.00
43770;BME280;6597;52.218;9.882;2023-02-23T10:41:32;100560.88;;;8.05;100.00
43770;BME280;6597;52.218;9.882;2023-02-23T10:44:01;100562.63;;;8.05;100.00
43770;BME280;6597;52.218;9.882;2023-02-23T10:46:34;100563.47;;;8.05;100.00
43770;BME280;6597;52.218;9.882;2023-02-23T10:49:03;100558.34;;;8.02;100.00
43770;BME280;6597;52.218;9.882;2023-02-23T10:51:33;100561.75;;;8.04;100.00
43770;BME280;6597;52.218;9.882;2023-02-23T10:54:33;100569.59;;;8.04;100.00
43770;BME280;6597;52.218;9.882;2023-02-23T10:57:00;100565.16;;;8.08;100.00
43770;BME280;6597;52.218;9.882;2023-02-23T10:59:28;100560.00;;;8.05;100.00
43770;BME280;6597;52.218;9.882;2023-02-23T11:01:54;100564.25;;;8.09;100.00
43770;BME280;6597;52.218;9.882;2023-02-23T11:04:23;100557.47;;;8.02;100.00
43770;BME280;6597;52.218;9.882;2023-02-23T11:07:05;100553.97;;;8.03;100.00
43770;BME280;6597;52.218;9.882;2023-02-23T11:09:32;100555.72;;;8.02;100.00
43770;BME280;6597;52.218;9.882;2023-02-23T11:12:01;100558.25;;;8.05;100.00
43770;BME280;6597;52.218;9.882;2023-02-23T11:14:30;100547.59;;;8.13;100.00
43770;BME280;6597;52.218;9.882;2023-02-23T11:16:58;100546.53;;;8.20;100.00
43770;BME280;6597;52.218;9.882;2023-02-23T11:19:29;100554.22;;;8.25;100.00
43770;BME280;6597;52.218;9.882;2023-02-23T11:21:59;100545.47;;;8.26;100.00
43770;BME280;6597;52.218;9.882;2023-02-23T11:24:27;100542.91;;;8.24;100.00
43770;BME280;6597;52.218;9.882;2023-02-23T11:26:56;100546.53;;;8.20;100.00
43770;BME280;6597;52.218;9.882;2023-02-23T11:29:31;100543.00;;;8.21;100.00
43770;BME280;6597;52.218;9.882;2023-02-23T11:32:04;100546.53;;;8.20;100.00
43770;BME280;6597;52.218;9.882;2023-02-23T11:34:34;100540.34;;;8.23;100.00
43770;BME280;6597;52.218;9.882;2023-02-23T11:37:09;100540.25;;;8.26;100.00
43770;BME280;6597;52.218;9.882;2023-02-23T11:39:50;100538.31;;;8.34;100.00
43770;BME280;6597;52.218;9.882;2023-02-23T11:42:19;100534.06;;;8.28;100.00
43770;BME280;6597;52.218;9.882;2023-02-23T11:45:01;100531.47;;;8.28;100.00
43770;BME280;6597;52.218;9.882;2023-02-23T11:47:30;100527.84;;;8.32;100.00
43770;BME280;6597;52.218;9.882;2023-02-23T11:49:59;100535.69;;;8.32;100.00
43770;BME280;6597;52.218;9.882;2023-02-23T11:52:28;100521.69;;;8.35;100.00
43770;BME280;6597;52.218;9.882;2023-02-23T11:54:57;100525.03;;;8.40;100.00
43770;BME280;6597;52.218;9.882;2023-02-23T11:57:27;100523.47;;;8.34;100.00
43770;BME280;6597;52.218;9.882;2023-02-23T11:59:56;100524.28;;;8.36;100.00
43770;BME280;6597;52.218;9.882;2023-02-23T12:02:25;100523.31;;;8.39;100.00
43770;BME280;6597;52.218;9.882;2023-02-23T12:05:01;100521.34;;;8.47;100.00
43770;BME280;6597;52.218;9.882;2023-02-23T12:07:35;100509.84;;;8.53;100.00
43770;BME280;6597;52.218;9.882;2023-02-23T12:10:11;100516.56;;;8.61;100.00
43770;BME280;6597;52.218;9.882;2023-02-23T12:12:45;100514.75;;;8.63;100.00
43770;BME280;6597;52.218;9.882;2023-02-23T12:15:22;100516.22;;;8.72;100.00
43770;BME280;6597;52.218;9.882;2023-02-23T12:17:53;100502.16;;;8.74;100.00
43770;BME280;6597;52.218;9.882;2023-02-23T12:20:23;100504.78;;;8.74;100.00
43770;BME280;6597;52.218;9.882;2023-02-23T12:22:54;100497.94;;;8.70;100.00
43770;BME280;6597;52.218;9.882;2023-02-23T12:25:26;100511.13;;;8.67;100.00
43770;BME280;6597;52.218;9.882;2023-02-23T12:28:00;100502.47;;;8.65;100.00
43770;BME280;6597;52.218;9.882;2023-02-23T12:30:39;100501.41;;;8.71;100.00
43770;BME280;6597;52.218;9.882;2023-02-23T12:33:11;100510.03;;;8.74;100.00
43770;BME280;6597;52.218;9.882;2023-02-23T12:35:44;100497.13;;;8.68;100.00
43770;BME280;6597;52.218;9.882;2023-02-23T12:38:19;100501.66;;;8.63;100.00
43770;BME280;6597;52.218;9.882;2023-02-23T12:40:54;100491.13;;;8.65;100.00
43770;BME280;6597;52.218;9.882;2023-02-23T12:43:27;100497.13;;;8.68;100.00
43770;BME280;6597;52.218;9.882;2023-02-23T12:46:04;100489.28;;;8.68;100.00
43770;BME280;6597;52.218;9.882;2023-02-23T12:48:37;100494.56;;;8.67;100.00
43770;BME280;6597;52.218;9.882;2023-02-23T12:51:17;100495.47;;;8.66;100.00
43770;BME280;6597;52.218;9.882;2023-02-23T12:53:46;100493.84;;;8.62;100.00
43770;BME280;6597;52.218;9.882;2023-02-23T12:56:21;100499.09;;;8.62;100.00
43770;BME280;6597;52.218;9.882;2023-02-23T12:58:58;100502.72;;;8.58;100.00
43770;BME280;6597;52.218;9.882;2023-02-23T13:01:32;100503.72;;;8.54;100.00
43770;BME280;6597;52.218;9.882;2023-02-23T13:04:17;100493.50;;;8.46;100.00
43770;BME280;6597;52.218;9.882;2023-02-23T13:06:56;100510.94;;;8.46;100.00
43770;BME280;6597;52.218;9.882;2023-02-23T13:09:33;100504.75;;;8.48;100.00
43770;BME280;6597;52.218;9.882;2023-02-23T13:12:24;100502.25;;;8.43;100.00
43770;BME280;6597;52.218;9.882;2023-02-23T13:15:00;100500.47;;;8.46;100.00
43770;BME280;6597;52.218;9.882;2023-02-23T13:17:41;100506.91;;;8.34;100.00
43770;BME280;6597;52.218;9.882;2023-02-23T13:20:16;100504.28;;;8.34;100.00
43770;BME280;6597;52.218;9.882;2023-02-23T13:22:47;100501.69;;;8.32;100.00
43770;BME280;6597;52.218;9.882;2023-02-23T13:25:24;100497.41;;;8.30;100.00
43770;BME280;6597;52.218;9.882;2023-02-23T13:27:56;100495.94;;;8.21;100.00